createdAt,value
2023-04-21T00:00:56.347Z,19.30
2023-04-21T00:03:24.121Z,19.30
2023-04-21T00:05:51.499Z,19.30
2023-04-21T00:08:18.813Z,19.30
2023-04-21T00:10:46.713Z,19.30
2023-04-21T00:13:13.952Z,19.30
2023-04-21T00:15:40.688Z,19.30
2023-04-21T00:18:07.521Z,19.30
2023-04-21T00:20:34.179Z,19.30
2023-04-21T00:23:00.837Z,19.30
2023-04-21T00:25:27.526Z,19.20
2023-04-21T00:27:54.833Z,19.20
2023-04-21T00:30:21.757Z,19.20
2023-04-21T00:32:48.373Z,19.20
2023-04-21T00:35:14.999Z,19.20
2023-04-21T00:37:41.653Z,19.20
2023-04-21T00:40:09.307Z,19.20
2023-04-21T00:42:36.016Z,19.20
2023-04-21T00:45:04.422Z,19.20
2023-04-21T00:47:31.356Z,19.20
2023-04-21T00:49:58.960Z,19.20
2023-04-21T00:52:26.441Z,19.20
2023-04-21T00:54:53.426Z,19.20
2023-04-21T00:57:20.957Z,19.20
2023-04-21T00:59:47.958Z,19.20
2023-04-21T01:02:16.712Z,19.20
2023-04-21T01:04:45.459Z,19.20
2023-04-21T01:07:14.658Z,19.20
2023-04-21T01:09:41.354Z,19.20
2023-04-21T01:12:09.898Z,19.20
2023-04-21T01:14:37.888Z,19.20
2023-04-21T01:17:07.661Z,19.20
2023-04-21T01:19:41.802Z,19.20
2023-04-21T01:22:12.972Z,19.20
2023-04-21T01:24:45.285Z,19.20
2023-04-21T01:27:18.665Z,19.20
2023-04-21T01:29:47.533Z,19.20
2023-04-21T01:32:17.944Z,19.20
2023-04-21T01:34:45.423Z,19.20
2023-04-21T01:37:14.724Z,19.10
2023-04-21T01:39:43.150Z,19.10
2023-04-21T01:42:10.431Z,19.10
2023-04-21T01:44:37.930Z,19.10
2023-04-21T01:47:06.196Z,19.10
2023-04-21T01:49:32.928Z,19.10
2023-04-21T01:51:59.577Z,19.10
2023-04-21T01:54:26.285Z,19.10
2023-04-21T01:56:52.963Z,19.10
2023-04-21T01:59:19.803Z,19.10
2023-04-21T02:01:46.629Z,19.10
2023-04-21T02:04:13.330Z,19.10
2023-04-21T02:06:40.460Z,19.10
2023-04-21T02:09:07.114Z,19.10
2023-04-21T02:11:33.918Z,19.10
2023-04-21T02:14:00.862Z,19.00
2023-04-21T02:16:27.580Z,19.10
2023-04-21T02:18:56.780Z,19.00
2023-04-21T02:21:24.399Z,19.00
2023-04-21T02:23:51.602Z,19.10
2023-04-21T02:26:19.483Z,19.00
2023-04-21T02:28:46.279Z,19.00
2023-04-21T02:31:13.679Z,19.00
2023-04-21T02:33:40.330Z,19.00
2023-04-21T02:36:07.124Z,19.00
2023-04-21T02:38:33.750Z,19.00
2023-04-21T02:41:00.342Z,19.00
2023-04-21T02:43:26.974Z,19.00
2023-04-21T02:45:54.277Z,19.00
2023-04-21T02:48:22.939Z,19.00
2023-04-21T02:50:50.554Z,19.00
2023-04-21T02:53:17.167Z,19.00
2023-04-21T02:55:43.990Z,19.00
2023-04-21T02:58:11.027Z,19.00
2023-04-21T03:00:37.819Z,19.00
2023-04-21T03:03:05.080Z,19.00
2023-04-21T03:05:31.810Z,19.00
2023-04-21T03:07:58.455Z,18.90
2023-04-21T03:10:25.234Z,19.00
2023-04-21T03:12:51.953Z,18.90
2023-04-21T03:15:19.431Z,18.90
2023-04-21T03:17:46.106Z,19.00
2023-04-21T03:20:12.965Z,18.90
2023-04-21T03:22:39.610Z,18.90
2023-04-21T03:25:07.294Z,18.90
2023-04-21T03:27:34.826Z,18.90
2023-04-21T03:30:01.568Z,18.90
2023-04-21T03:32:28.282Z,18.90
2023-04-21T03:34:55.135Z,18.90
2023-04-21T03:37:21.752Z,18.90
2023-04-21T03:39:48.631Z,18.90
2023-04-21T03:42:15.376Z,18.90
2023-04-21T03:44:42.726Z,18.90
2023-04-21T03:47:09.376Z,18.90
2023-04-21T03:49:36.020Z,18.90
2023-04-21T03:52:02.909Z,18.90
2023-04-21T03:54:29.577Z,18.90
2023-04-21T03:56:56.185Z,18.90
2023-04-21T03:59:22.783Z,18.90
2023-04-21T04:01:49.426Z,18.80
2023-04-21T04:04:16.444Z,18.90
2023-04-21T04:06:43.261Z,18.90
2023-04-21T04:09:09.861Z,18.90
2023-04-21T04:11:36.575Z,18.90
2023-04-21T04:14:03.184Z,18.90
2023-04-21T04:16:30.024Z,18.80
2023-04-21T04:18:56.820Z,18.90
2023-04-21T04:21:23.516Z,18.80
2023-04-21T04:23:53.864Z,18.90
2023-04-21T04:26:22.497Z,18.90
2023-04-21T04:28:49.118Z,19.60
2023-04-21T04:31:17.080Z,18.90
2023-04-21T04:33:44.130Z,18.90
2023-04-21T04:36:11.910Z,18.80
2023-04-21T04:38:38.708Z,18.80
2023-04-21T04:41:06.200Z,18.80
2023-04-21T04:43:42.771Z,18.80
2023-04-21T04:46:12.689Z,18.80
2023-04-21T04:48:40.416Z,18.80
2023-04-21T04:51:08.402Z,18.80
2023-04-21T04:53:35.200Z,18.80
2023-04-21T04:56:02.402Z,18.80
2023-04-21T04:58:28.985Z,18.80
2023-04-21T05:00:55.654Z,18.80
2023-04-21T05:03:22.446Z,18.80
2023-04-21T05:05:49.251Z,18.80
2023-04-21T05:08:17.861Z,18.80
2023-04-21T05:10:44.854Z,18.80
2023-04-21T05:13:11.508Z,18.80
2023-04-21T05:15:38.149Z,18.80
2023-04-21T05:18:05.016Z,18.80
2023-04-21T05:20:31.825Z,18.80
2023-04-21T05:22:58.407Z,18.80
2023-04-21T05:25:25.059Z,18.80
2023-04-21T05:27:51.700Z,18.80
2023-04-21T05:30:18.443Z,18.80
2023-04-21T05:32:45.392Z,18.80
2023-04-21T05:35:12.086Z,18.80
2023-04-21T05:37:38.737Z,18.80
2023-04-21T05:40:06.022Z,18.90
2023-04-21T05:42:32.671Z,18.90
2023-04-21T05:44:59.427Z,19.00
2023-04-21T05:47:26.092Z,19.00
2023-04-21T05:49:53.809Z,19.00
2023-04-21T05:52:21.704Z,19.10
2023-04-21T05:54:48.441Z,19.10
2023-04-21T05:57:16.594Z,19.20
2023-04-21T05:59:43.738Z,19.20
2023-04-21T06:02:11.323Z,19.30
2023-04-21T06:04:38.197Z,19.30
2023-04-21T06:07:06.998Z,19.40
2023-04-21T06:09:35.156Z,19.30
2023-04-21T06:12:02.481Z,19.30
2023-04-21T06:14:29.110Z,19.40
2023-04-21T06:16:55.800Z,19.40
2023-04-21T06:19:22.451Z,19.40
2023-04-21T06:21:49.126Z,19.40
2023-04-21T06:24:16.174Z,19.40
2023-04-21T06:26:42.815Z,19.40
2023-04-21T06:29:09.419Z,19.40
2023-04-21T06:31:36.076Z,19.50
2023-04-21T06:34:02.772Z,19.50
2023-04-21T06:36:29.372Z,19.50
2023-04-21T06:38:56.085Z,19.60
2023-04-21T06:41:24.667Z,19.50
2023-04-21T06:43:51.505Z,19.60
2023-04-21T06:46:18.351Z,19.60
2023-04-21T06:48:45.171Z,19.60
2023-04-21T06:51:11.830Z,19.60
2023-04-21T06:53:38.687Z,19.60
2023-04-21T06:56:05.494Z,19.60
2023-04-21T06:58:32.147Z,19.70
2023-04-21T07:00:58.918Z,19.70
2023-04-21T07:03:25.803Z,19.70
2023-04-21T07:05:52.568Z,19.70
2023-04-21T07:08:19.174Z,19.70
2023-04-21T07:10:46.048Z,19.80
2023-04-21T07:13:12.684Z,19.80
2023-04-21T07:15:39.346Z,19.80
2023-04-21T07:18:06.267Z,19.80
2023-04-21T07:20:32.982Z,19.90
2023-04-21T07:22:59.629Z,19.80
2023-04-21T07:25:26.268Z,19.90
2023-04-21T07:27:52.945Z,19.90
2023-04-21T07:30:19.673Z,19.90
2023-04-21T07:32:46.857Z,19.90
2023-04-21T07:35:13.960Z,20.00
2023-04-21T07:37:40.992Z,20.00
2023-04-21T07:40:08.913Z,20.00
2023-04-21T07:42:35.609Z,20.00
2023-04-21T07:45:02.581Z,20.10
2023-04-21T07:47:29.894Z,20.00
2023-04-21T07:49:56.656Z,20.00
2023-04-21T07:52:23.453Z,20.00
2023-04-21T07:54:50.577Z,20.10
2023-04-21T07:57:17.470Z,20.10
2023-04-21T07:59:44.253Z,20.10
2023-04-21T08:02:10.939Z,20.10
2023-04-21T08:04:37.841Z,20.10
2023-04-21T08:07:05.127Z,20.10
2023-04-21T08:12:16.488Z,20.10
2023-04-21T08:14:43.089Z,20.10
2023-04-21T08:17:09.695Z,20.10
2023-04-21T08:19:36.330Z,20.10
2023-04-21T08:22:03.022Z,20.10
2023-04-21T08:24:29.647Z,20.20
2023-04-21T08:26:57.685Z,20.20
2023-04-21T08:29:24.369Z,20.20
2023-04-21T08:31:51.161Z,20.20
2023-04-21T08:34:20.711Z,20.20
2023-04-21T08:36:48.021Z,20.20
2023-04-21T08:39:16.190Z,20.20
2023-04-21T08:41:42.816Z,20.20
2023-04-21T08:44:11.525Z,20.20
2023-04-21T08:46:39.672Z,20.20
2023-04-21T08:49:09.224Z,20.20
2023-04-21T08:51:36.295Z,20.20
2023-04-21T08:54:03.028Z,20.30
2023-04-21T08:56:29.735Z,20.30
2023-04-21T08:58:56.559Z,20.20
2023-04-21T09:01:23.400Z,20.20
2023-04-21T09:03:50.267Z,20.30
2023-04-21T09:06:17.471Z,20.20
2023-04-21T09:08:55.678Z,20.30
2023-04-21T09:11:22.750Z,20.30
2023-04-21T09:13:49.369Z,20.30
2023-04-21T09:16:21.469Z,20.30
2023-04-21T09:18:49.418Z,20.30
2023-04-21T09:21:18.026Z,20.30
2023-04-21T09:23:46.022Z,20.30
2023-04-21T09:26:13.240Z,20.30
2023-04-21T09:28:47.741Z,20.30
2023-04-21T09:31:20.560Z,20.30
2023-04-21T09:33:57.089Z,20.30
2023-04-21T09:36:27.749Z,21.80
2023-04-21T09:39:03.736Z,20.30
2023-04-21T09:41:41.372Z,20.30
2023-04-21T09:44:08.048Z,20.30
2023-04-21T09:46:36.796Z,20.30
2023-04-21T09:49:05.278Z,20.30
2023-04-21T09:51:56.206Z,20.30
2023-04-21T09:54:29.616Z,20.30
2023-04-21T09:57:00.033Z,20.30
2023-04-21T09:59:30.259Z,20.30
2023-04-21T10:01:59.239Z,20.30
2023-04-21T10:04:28.940Z,20.40
2023-04-21T10:06:56.309Z,20.30
2023-04-21T10:09:25.293Z,20.40
2023-04-21T10:11:53.458Z,20.40
2023-04-21T10:14:20.480Z,20.40
2023-04-21T10:17:06.209Z,20.40
2023-04-21T10:19:41.572Z,20.40
2023-04-21T10:22:11.874Z,20.40
2023-04-21T10:24:42.866Z,20.40
2023-04-21T10:27:30.377Z,20.40
2023-04-21T10:29:58.659Z,20.40
2023-04-21T10:32:40.070Z,20.40
2023-04-21T10:35:09.920Z,20.40
2023-04-21T10:37:36.571Z,20.30
2023-04-21T10:40:09.223Z,20.40
2023-04-21T10:42:37.121Z,20.40
2023-04-21T10:45:08.934Z,20.30
2023-04-21T10:47:36.985Z,20.40
2023-04-21T10:50:16.060Z,20.40
2023-04-21T10:53:12.613Z,20.40
2023-04-21T10:55:39.649Z,20.40
2023-04-21T10:58:09.151Z,20.40
2023-04-21T11:00:40.425Z,20.40
2023-04-21T11:03:09.179Z,20.40
2023-04-21T11:05:40.957Z,20.40
2023-04-21T11:08:12.700Z,20.40
2023-04-21T11:10:57.581Z,20.40
2023-04-21T11:13:26.869Z,20.40
2023-04-21T11:16:00.813Z,20.40
2023-04-21T11:18:41.677Z,20.40
2023-04-21T11:21:17.635Z,20.40
2023-04-21T11:23:57.750Z,20.40
2023-04-21T11:26:31.445Z,20.40
2023-04-21T11:29:01.550Z,20.40
2023-04-21T11:31:31.426Z,20.40
2023-04-21T11:33:59.849Z,20.40
2023-04-21T11:36:27.213Z,20.40
2023-04-21T11:38:53.828Z,20.40
2023-04-21T11:41:24.021Z,20.40
2023-04-21T11:43:52.081Z,20.40
2023-04-21T11:46:24.260Z,20.40
2023-04-21T11:49:07.441Z,20.40
2023-04-21T11:51:47.494Z,20.40
2023-04-21T11:54:18.422Z,20.40
2023-04-21T11:56:48.524Z,20.50
2023-04-21T11:59:19.428Z,20.50
2023-04-21T12:01:50.822Z,20.50
2023-04-21T12:04:19.481Z,20.50
2023-04-21T12:06:47.544Z,20.50
2023-04-21T12:09:21.048Z,20.50
2023-04-21T12:11:58.796Z,20.50
2023-04-21T12:14:28.555Z,20.40
2023-04-21T12:16:56.915Z,20.50
2023-04-21T12:19:41.087Z,20.50
2023-04-21T12:22:12.665Z,20.50
2023-04-21T12:24:40.161Z,20.50
2023-04-21T12:27:07.669Z,20.50
2023-04-21T12:29:38.505Z,20.50
2023-04-21T12:32:09.380Z,20.60
2023-04-21T12:34:36.283Z,20.60
2023-04-21T12:37:03.304Z,20.60
2023-04-21T12:39:30.288Z,20.50
2023-04-21T12:41:57.680Z,20.60
2023-04-21T12:44:24.666Z,20.60
2023-04-21T12:46:51.905Z,20.50
2023-04-21T12:49:19.055Z,20.50
2023-04-21T12:51:45.778Z,20.60
2023-04-21T12:54:13.296Z,20.60
2023-04-21T12:56:40.271Z,20.60
2023-04-21T12:59:07.181Z,20.50
2023-04-21T13:01:33.947Z,20.50
2023-04-21T13:04:01.048Z,20.50
2023-04-21T13:06:28.511Z,20.50
2023-04-21T13:08:55.938Z,20.50
2023-04-21T13:11:22.610Z,20.50
2023-04-21T13:13:49.237Z,20.50
2023-04-21T13:16:16.678Z,20.50
2023-04-21T13:18:46.129Z,20.50
2023-04-21T13:21:13.269Z,20.60
2023-04-21T13:23:40.219Z,20.50
2023-04-21T13:26:07.995Z,20.50
2023-04-21T13:28:37.051Z,20.50
2023-04-21T13:31:03.869Z,20.60
2023-04-21T13:33:34.796Z,20.50
2023-04-21T13:36:04.432Z,20.50
2023-04-21T13:38:31.827Z,20.50
2023-04-21T13:40:58.720Z,20.60
2023-04-21T13:43:25.609Z,20.50
2023-04-21T13:45:52.465Z,20.50
2023-04-21T13:48:21.928Z,20.50
2023-04-21T13:50:48.932Z,20.50
2023-04-21T13:53:21.125Z,20.50
2023-04-21T13:55:48.210Z,20.50
2023-04-21T13:58:15.916Z,20.50
2023-04-21T14:00:42.596Z,20.50
2023-04-21T14:03:09.798Z,20.50
2023-04-21T14:05:36.947Z,20.50
2023-04-21T14:08:03.773Z,20.50
2023-04-21T14:10:31.056Z,20.60
2023-04-21T14:12:57.716Z,20.50
2023-04-21T14:15:26.006Z,20.60
2023-04-21T14:17:53.597Z,20.60
2023-04-21T14:20:20.454Z,20.80
2023-04-21T14:22:47.121Z,20.60
2023-04-21T14:25:13.800Z,20.60
2023-04-21T14:27:40.524Z,20.50
2023-04-21T14:30:07.879Z,20.60
2023-04-21T14:32:34.638Z,20.60
2023-04-21T14:35:03.385Z,20.60
2023-04-21T14:37:30.585Z,20.60
2023-04-21T14:39:57.186Z,20.60
2023-04-21T14:42:23.881Z,20.60
2023-04-21T14:44:50.714Z,20.60
2023-04-21T14:47:17.507Z,20.70
2023-04-21T14:49:44.237Z,20.70
2023-04-21T14:52:11.410Z,20.70
2023-04-21T14:54:38.131Z,20.70
2023-04-21T14:57:19.028Z,20.70
2023-04-21T14:59:51.319Z,20.70
2023-04-21T15:02:19.656Z,20.70
2023-04-21T15:04:46.798Z,20.70
2023-04-21T15:07:13.731Z,20.70
2023-04-21T15:09:42.976Z,20.70
2023-04-21T15:12:09.893Z,20.70
2023-04-21T15:14:36.533Z,20.70
2023-04-21T15:17:03.331Z,20.70
2023-04-21T15:19:29.989Z,20.80
2023-04-21T15:21:57.296Z,20.70
2023-04-21T15:24:24.487Z,20.70
2023-04-21T15:26:51.195Z,20.70
2023-04-21T15:29:17.828Z,20.70
2023-04-21T15:31:44.806Z,20.70
2023-04-21T15:34:11.593Z,20.70
2023-04-21T15:36:38.215Z,20.80
2023-04-21T15:39:04.868Z,20.80
2023-04-21T15:41:31.729Z,20.80
2023-04-21T15:43:59.841Z,20.90
2023-04-21T15:46:26.591Z,20.90
2023-04-21T15:48:53.434Z,20.80
2023-04-21T15:51:20.371Z,20.80
2023-04-21T15:53:48.236Z,20.80
2023-04-21T15:56:15.491Z,20.70
2023-04-21T15:58:42.690Z,20.70
2023-04-21T16:01:09.744Z,20.70
2023-04-21T16:03:37.086Z,20.70
2023-04-21T16:06:04.191Z,20.70
2023-04-21T16:08:32.970Z,20.70
2023-04-21T16:11:00.138Z,20.80
2023-04-21T16:13:27.038Z,20.70
2023-04-21T16:15:53.759Z,20.80
2023-04-21T16:18:20.798Z,20.80
2023-04-21T16:20:47.685Z,20.80
2023-04-21T16:23:15.105Z,20.80
2023-04-21T16:25:42.151Z,20.80
2023-04-21T16:28:09.580Z,20.70
2023-04-21T16:30:38.279Z,20.70
2023-04-21T16:33:04.956Z,20.70
2023-04-21T16:35:32.189Z,20.60
2023-04-21T16:37:58.941Z,20.60
2023-04-21T16:40:25.763Z,20.60
2023-04-21T16:42:52.623Z,20.60
2023-04-21T16:45:19.552Z,20.60
2023-04-21T16:47:46.431Z,20.60
2023-04-21T16:50:13.544Z,20.60
2023-04-21T16:52:40.336Z,20.50
2023-04-21T16:55:08.036Z,20.50
2023-04-21T16:57:34.832Z,20.50
2023-04-21T17:00:05.296Z,20.50
2023-04-21T17:02:32.125Z,20.50
2023-04-21T17:04:58.889Z,20.50
2023-04-21T17:07:25.524Z,20.60
2023-04-21T17:09:52.361Z,20.50
2023-04-21T17:12:18.973Z,20.50
2023-04-21T17:14:45.991Z,20.50
2023-04-21T17:17:12.636Z,20.50
2023-04-21T17:19:40.187Z,20.50
2023-04-21T17:22:06.836Z,20.50
2023-04-21T17:24:45.012Z,20.40
2023-04-21T17:27:19.186Z,20.50
2023-04-21T17:29:46.726Z,20.50
2023-04-21T17:32:13.384Z,20.60
2023-04-21T17:34:40.183Z,20.50
2023-04-21T17:37:06.926Z,20.50
2023-04-21T17:39:33.636Z,20.50
2023-04-21T17:42:02.348Z,20.50
2023-04-21T17:44:29.041Z,20.50
2023-04-21T17:46:55.807Z,20.50
2023-04-21T17:49:24.659Z,20.50
2023-04-21T17:51:51.684Z,20.50
2023-04-21T17:54:18.326Z,20.50
2023-04-21T17:56:48.089Z,20.50
2023-04-21T17:59:14.729Z,20.50
2023-04-21T18:01:41.420Z,20.40
2023-04-21T18:04:08.579Z,20.50
2023-04-21T18:06:35.950Z,20.50
2023-04-21T18:09:04.727Z,20.50
2023-04-21T18:11:31.878Z,20.50
2023-04-21T18:13:58.930Z,20.40
2023-04-21T18:16:26.243Z,20.40
2023-04-21T18:18:53.138Z,20.40
2023-04-21T18:21:19.804Z,20.40
2023-04-21T18:23:46.458Z,20.60
2023-04-21T18:26:13.105Z,20.40
2023-04-21T18:28:39.694Z,20.40
2023-04-21T18:31:06.459Z,20.40
2023-04-21T18:33:33.323Z,20.30
2023-04-21T18:35:59.950Z,20.30
2023-04-21T18:38:26.600Z,20.30
2023-04-21T18:40:53.207Z,20.30
2023-04-21T18:43:19.852Z,20.30
2023-04-21T18:45:46.600Z,20.20
2023-04-21T18:48:13.269Z,20.20
2023-04-21T18:50:40.906Z,20.30
2023-04-21T18:53:08.394Z,20.30
2023-04-21T18:55:36.388Z,20.20
2023-04-21T18:58:03.323Z,20.20
2023-04-21T19:00:31.691Z,20.20
2023-04-21T19:03:01.018Z,20.20
2023-04-21T19:05:29.707Z,20.20
2023-04-21T19:07:57.907Z,20.20
2023-04-21T19:10:24.592Z,20.20
2023-04-21T19:12:51.300Z,20.20
2023-04-21T19:15:18.146Z,20.20
2023-04-21T19:17:44.925Z,20.20
2023-04-21T19:20:12.137Z,20.20
2023-04-21T19:22:38.775Z,20.20
2023-04-21T19:25:06.964Z,20.20
2023-04-21T19:27:36.252Z,20.20
2023-04-21T19:30:03.298Z,20.20
2023-04-21T19:32:30.504Z,20.10
2023-04-21T19:34:57.404Z,20.20
2023-04-21T19:37:25.668Z,20.10
2023-04-21T19:39:52.361Z,20.10
2023-04-21T19:42:19.006Z,20.20
2023-04-21T19:44:45.752Z,20.20
2023-04-21T19:47:12.485Z,20.10
2023-04-21T19:49:39.348Z,20.10
2023-04-21T19:52:05.972Z,20.10
2023-04-21T19:54:32.817Z,20.10
2023-04-21T19:56:59.450Z,20.10
2023-04-21T19:59:26.468Z,20.10
2023-04-21T20:01:53.224Z,20.10
2023-04-21T20:04:19.914Z,20.10
2023-04-21T20:06:46.689Z,20.10
2023-04-21T20:09:13.320Z,20.00
2023-04-21T20:11:40.228Z,20.10
2023-04-21T20:14:06.914Z,20.10
2023-04-21T20:16:34.137Z,20.10
2023-04-21T20:19:01.031Z,20.00
2023-04-21T20:21:27.660Z,20.10
2023-04-21T20:23:54.500Z,20.10
2023-04-21T20:26:21.331Z,20.10
2023-04-21T20:28:48.059Z,20.10
2023-04-21T20:31:15.004Z,20.10
2023-04-21T20:33:41.696Z,20.00
2023-04-21T20:36:08.472Z,20.00
2023-04-21T20:38:35.536Z,20.00
2023-04-21T20:41:03.265Z,20.00
2023-04-21T20:43:32.934Z,20.00
2023-04-21T20:46:01.165Z,20.00
2023-04-21T20:48:27.950Z,20.00
2023-04-21T20:50:55.016Z,20.00
2023-04-21T20:53:22.185Z,20.00
2023-04-21T20:55:48.919Z,20.00
2023-04-21T20:58:15.567Z,20.00
2023-04-21T21:00:42.267Z,20.00
2023-04-21T21:03:11.304Z,20.00
2023-04-21T21:05:38.367Z,19.90
2023-04-21T21:08:05.405Z,20.00
2023-04-21T21:10:32.113Z,19.90
2023-04-21T21:12:59.448Z,20.00
2023-04-21T21:15:32.606Z,20.00
2023-04-21T21:17:59.777Z,19.90
2023-04-21T21:20:26.496Z,19.90
2023-04-21T21:22:53.172Z,19.90
2023-04-21T21:25:19.800Z,19.90
2023-04-21T21:27:46.475Z,19.90
2023-04-21T21:30:13.216Z,19.90
2023-04-21T21:32:39.864Z,19.90
2023-04-21T21:35:09.271Z,19.90
2023-04-21T21:37:36.432Z,19.90
2023-04-21T21:40:03.250Z,19.90
2023-04-21T21:42:29.847Z,19.90
2023-04-21T21:44:56.630Z,19.90
2023-04-21T21:47:23.284Z,19.90
2023-04-21T21:49:54.538Z,19.90
2023-04-21T21:52:21.747Z,19.90
2023-04-21T21:54:48.367Z,19.90
2023-04-21T21:57:15.117Z,19.80
2023-04-21T21:59:42.064Z,19.90
2023-04-21T22:02:08.789Z,19.80
2023-04-21T22:04:35.828Z,19.90
2023-04-21T22:07:03.510Z,19.80
2023-04-21T22:09:30.378Z,19.80
2023-04-21T22:11:57.088Z,19.90
2023-04-21T22:14:24.251Z,19.80
2023-04-21T22:16:53.807Z,19.80
2023-04-21T22:19:20.786Z,19.80
2023-04-21T22:21:47.899Z,19.80
2023-04-21T22:24:14.832Z,19.80
2023-04-21T22:26:41.976Z,19.80
2023-04-21T22:29:08.639Z,19.80
2023-04-21T22:31:35.457Z,19.80
2023-04-21T22:34:02.173Z,19.80
2023-04-21T22:36:28.997Z,19.80
2023-04-21T22:38:55.959Z,19.80
2023-04-21T22:41:22.777Z,19.80
2023-04-21T22:43:49.398Z,19.80
2023-04-21T22:46:16.059Z,19.80
2023-04-21T22:48:46.263Z,19.80
2023-04-21T22:51:14.283Z,19.80
2023-04-21T22:53:40.975Z,19.70
2023-04-21T22:56:07.597Z,19.80
2023-04-21T22:58:34.322Z,19.80
2023-04-21T23:01:01.730Z,19.80
2023-04-21T23:03:28.653Z,19.70
2023-04-21T23:05:55.563Z,19.80
2023-04-21T23:08:22.274Z,19.70
2023-04-21T23:10:48.908Z,19.70
2023-04-21T23:13:15.536Z,19.80
2023-04-21T23:15:42.171Z,19.70
2023-04-21T23:18:08.812Z,19.70
2023-04-21T23:20:35.773Z,19.80
2023-04-21T23:23:02.502Z,19.70
2023-04-21T23:25:29.150Z,19.70
2023-04-21T23:27:55.737Z,19.70
2023-04-21T23:30:22.506Z,19.80
2023-04-21T23:32:50.011Z,19.80
2023-04-21T23:35:16.819Z,19.70
2023-04-21T23:37:43.458Z,19.70
2023-04-21T23:40:12.406Z,19.80
2023-04-21T23:42:39.500Z,19.70
2023-04-21T23:45:06.857Z,19.70
2023-04-21T23:47:33.833Z,19.70
2023-04-21T23:50:00.760Z,19.70
2023-04-21T23:52:28.542Z,19.70
2023-04-21T23:54:55.210Z,19.70
2023-04-21T23:57:21.893Z,19.70
2023-04-21T23:59:48.512Z,19.70
